sensor_id;sensor_type;location;lat;lon;timestamp;P1;durP1;ratioP1;P2;durP2;ratioP2
76813;SDS011;65767;49.360;8.266;2022-12-07T00:01:15;13.03;;;8.57;;
76813;SDS011;65767;49.360;8.266;2022-12-07T00:02:14;12.95;;;9.05;;
76813;SDS011;65767;49.360;8.266;2022-12-07T00:03:15;15.17;;;9.57;;
76813;SDS011;65767;49.360;8.266;2022-12-07T00:04:16;11.70;;;8.53;;
76813;SDS011;65767;49.360;8.266;2022-12-07T00:05:17;12.38;;;9.07;;
76813;SDS011;65767;49.360;8.266;2022-12-07T00:06:17;13.63;;;9.17;;
76813;SDS011;65767;49.360;8.266;2022-12-07T00:07:18;11.25;;;8.35;;
76813;SDS011;65767;49.360;8.266;2022-12-07T00:08:18;12.20;;;8.93;;
76813;SDS011;65767;49.360;8.266;2022-12-07T00:09:19;11.23;;;8.80;;
76813;SDS011;65767;49.360;8.266;2022-12-07T00:10:19;11.40;;;8.13;;
76813;SDS011;65767;49.360;8.266;2022-12-07T00:11:20;10.60;;;7.87;;
76813;SDS011;65767;49.360;8.266;2022-12-07T00:12:21;11.30;;;8.40;;
76813;SDS011;65767;49.360;8.266;2022-12-07T00:13:21;10.63;;;8.27;;
76813;SDS011;65767;49.360;8.266;2022-12-07T00:14:21;11.90;;;8.57;;
76813;SDS011;65767;49.360;8.266;2022-12-07T00:15:22;12.10;;;8.60;;
76813;SDS011;65767;49.360;8.266;2022-12-07T00:16:23;12.77;;;8.87;;
76813;SDS011;65767;49.360;8.266;2022-12-07T00:17:24;13.02;;;8.32;;
76813;SDS011;65767;49.360;8.266;2022-12-07T00:18:24;11.33;;;8.10;;
76813;SDS011;65767;49.360;8.266;2022-12-07T00:19:24;12.07;;;8.87;;
76813;SDS011;65767;49.360;8.266;2022-12-07T00:20:25;13.23;;;9.13;;
76813;SDS011;65767;49.360;8.266;2022-12-07T00:21:26;11.47;;;7.87;;
76813;SDS011;65767;49.360;8.266;2022-12-07T00:22:27;10.98;;;8.27;;
76813;SDS011;65767;49.360;8.266;2022-12-07T00:23:27;12.30;;;9.17;;
76813;SDS011;65767;49.360;8.266;2022-12-07T00:24:28;12.60;;;8.77;;
76813;SDS011;65767;49.360;8.266;2022-12-07T00:25:29;10.67;;;8.00;;
76813;SDS011;65767;49.360;8.266;2022-12-07T00:26:31;12.18;;;8.23;;
76813;SDS011;65767;49.360;8.266;2022-12-07T00:27:34;10.07;;;8.05;;
76813;SDS011;65767;49.360;8.266;2022-12-07T00:28:35;11.63;;;7.83;;
76813;SDS011;65767;49.360;8.266;2022-12-07T00:29:35;10.97;;;8.23;;
76813;SDS011;65767;49.360;8.266;2022-12-07T00:30:37;11.60;;;8.38;;
76813;SDS011;65767;49.360;8.266;2022-12-07T00:31:37;10.63;;;7.63;;
76813;SDS011;65767;49.360;8.266;2022-12-07T00:32:40;9.73;;;7.78;;
76813;SDS011;65767;49.360;8.266;2022-12-07T00:33:41;12.17;;;8.50;;
76813;SDS011;65767;49.360;8.266;2022-12-07T00:34:41;13.70;;;8.40;;
76813;SDS011;65767;49.360;8.266;2022-12-07T00:35:41;10.70;;;8.37;;
76813;SDS011;65767;49.360;8.266;2022-12-07T00:36:42;11.20;;;7.73;;
76813;SDS011;65767;49.360;8.266;2022-12-07T00:37:42;9.43;;;7.73;;
76813;SDS011;65767;49.360;8.266;2022-12-07T00:38:43;10.30;;;7.67;;
76813;SDS011;65767;49.360;8.266;2022-12-07T00:39:43;12.13;;;7.97;;
76813;SDS011;65767;49.360;8.266;2022-12-07T00:40:43;10.03;;;7.53;;
76813;SDS011;65767;49.360;8.266;2022-12-07T00:41:44;12.40;;;7.87;;
76813;SDS011;65767;49.360;8.266;2022-12-07T00:42:44;13.23;;;8.40;;
76813;SDS011;65767;49.360;8.266;2022-12-07T00:43:45;10.37;;;7.93;;
76813;SDS011;65767;49.360;8.266;2022-12-07T00:44:46;8.82;;;7.10;;
76813;SDS011;65767;49.360;8.266;2022-12-07T00:45:46;9.93;;;7.97;;
76813;SDS011;65767;49.360;8.266;2022-12-07T00:46:46;9.80;;;7.80;;
76813;SDS011;65767;49.360;8.266;2022-12-07T00:47:47;11.00;;;8.03;;
76813;SDS011;65767;49.360;8.266;2022-12-07T00:48:48;11.13;;;7.10;;
76813;SDS011;65767;49.360;8.266;2022-12-07T00:49:48;10.10;;;7.57;;
76813;SDS011;65767;49.360;8.266;2022-12-07T00:50:49;10.07;;;7.57;;
76813;SDS011;65767;49.360;8.266;2022-12-07T00:51:49;11.97;;;7.80;;
76813;SDS011;65767;49.360;8.266;2022-12-07T00:52:50;11.90;;;7.63;;
76813;SDS011;65767;49.360;8.266;2022-12-07T00:53:50;11.20;;;7.87;;
76813;SDS011;65767;49.360;8.266;2022-12-07T00:54:51;11.27;;;7.90;;
76813;SDS011;65767;49.360;8.266;2022-12-07T00:55:51;9.93;;;7.27;;
76813;SDS011;65767;49.360;8.266;2022-12-07T00:56:52;11.10;;;7.80;;
76813;SDS011;65767;49.360;8.266;2022-12-07T00:57:53;15.27;;;8.27;;
76813;SDS011;65767;49.360;8.266;2022-12-07T00:58:57;11.10;;;8.27;;
76813;SDS011;65767;49.360;8.266;2022-12-07T00:59:57;10.32;;;7.80;;
76813;SDS011;65767;49.360;8.266;2022-12-07T01:01:01;12.97;;;8.33;;
76813;SDS011;65767;49.360;8.266;2022-12-07T01:02:02;11.77;;;8.32;;
76813;SDS011;65767;49.360;8.266;2022-12-07T01:03:03;9.93;;;7.80;;
76813;SDS011;65767;49.360;8.266;2022-12-07T01:04:03;12.20;;;8.07;;
76813;SDS011;65767;49.360;8.266;2022-12-07T01:05:04;11.13;;;7.83;;
76813;SDS011;65767;49.360;8.266;2022-12-07T01:06:05;10.20;;;7.97;;
76813;SDS011;65767;49.360;8.266;2022-12-07T01:07:05;12.03;;;8.07;;
76813;SDS011;65767;49.360;8.266;2022-12-07T01:08:06;11.00;;;8.23;;
76813;SDS011;65767;49.360;8.266;2022-12-07T01:09:06;12.13;;;8.43;;
76813;SDS011;65767;49.360;8.266;2022-12-07T01:10:07;12.13;;;8.70;;
76813;SDS011;65767;49.360;8.266;2022-12-07T01:11:09;11.20;;;7.67;;
76813;SDS011;65767;49.360;8.266;2022-12-07T01:12:09;11.68;;;8.18;;
76813;SDS011;65767;49.360;8.266;2022-12-07T01:13:10;11.03;;;8.20;;
76813;SDS011;65767;49.360;8.266;2022-12-07T01:14:10;10.07;;;7.70;;
76813;SDS011;65767;49.360;8.266;2022-12-07T01:15:11;12.50;;;8.37;;
76813;SDS011;65767;49.360;8.266;2022-12-07T01:16:12;10.80;;;8.37;;
76813;SDS011;65767;49.360;8.266;2022-12-07T01:17:13;11.52;;;8.48;;
76813;SDS011;65767;49.360;8.266;2022-12-07T01:18:13;12.10;;;8.57;;
76813;SDS011;65767;49.360;8.266;2022-12-07T01:19:13;13.43;;;8.00;;
76813;SDS011;65767;49.360;8.266;2022-12-07T01:20:14;11.77;;;8.23;;
76813;SDS011;65767;49.360;8.266;2022-12-07T01:21:20;11.95;;;7.60;;
76813;SDS011;65767;49.360;8.266;2022-12-07T01:22:21;10.27;;;7.72;;
76813;SDS011;65767;49.360;8.266;2022-12-07T01:23:21;11.03;;;8.17;;
76813;SDS011;65767;49.360;8.266;2022-12-07T01:24:21;9.60;;;7.33;;
76813;SDS011;65767;49.360;8.266;2022-12-07T01:25:22;10.73;;;8.43;;
76813;SDS011;65767;49.360;8.266;2022-12-07T01:26:23;11.03;;;7.90;;
76813;SDS011;65767;49.360;8.266;2022-12-07T01:27:24;11.52;;;8.23;;
76813;SDS011;65767;49.360;8.266;2022-12-07T01:28:24;10.53;;;8.33;;
76813;SDS011;65767;49.360;8.266;2022-12-07T01:29:25;11.57;;;8.40;;
76813;SDS011;65767;49.360;8.266;2022-12-07T01:30:25;9.83;;;8.07;;
76813;SDS011;65767;49.360;8.266;2022-12-07T01:31:26;12.50;;;8.67;;
76813;SDS011;65767;49.360;8.266;2022-12-07T01:32:27;9.90;;;7.63;;
76813;SDS011;65767;49.360;8.266;2022-12-07T01:33:28;12.17;;;9.00;;
76813;SDS011;65767;49.360;8.266;2022-12-07T01:34:29;11.88;;;8.48;;
76813;SDS011;65767;49.360;8.266;2022-12-07T01:35:29;9.67;;;7.90;;
76813;SDS011;65767;49.360;8.266;2022-12-07T01:36:34;9.07;;;7.77;;
76813;SDS011;65767;49.360;8.266;2022-12-07T01:37:35;13.85;;;8.55;;
76813;SDS011;65767;49.360;8.266;2022-12-07T01:38:36;12.23;;;8.73;;
76813;SDS011;65767;49.360;8.266;2022-12-07T01:39:36;11.33;;;8.60;;
76813;SDS011;65767;49.360;8.266;2022-12-07T01:40:36;9.13;;;7.83;;
76813;SDS011;65767;49.360;8.266;2022-12-07T01:41:38;10.30;;;8.57;;
76813;SDS011;65767;49.360;8.266;2022-12-07T01:42:43;11.77;;;8.30;;
76813;SDS011;65767;49.360;8.266;2022-12-07T01:45:22;10.32;;;7.68;;
76813;SDS011;65767;49.360;8.266;2022-12-07T01:46:31;10.40;;;7.30;;
76813;SDS011;65767;49.360;8.266;2022-12-07T01:47:31;10.03;;;6.97;;
76813;SDS011;65767;49.360;8.266;2022-12-07T01:48:36;11.93;;;8.40;;
76813;SDS011;65767;49.360;8.266;2022-12-07T01:49:41;11.02;;;8.20;;
76813;SDS011;65767;49.360;8.266;2022-12-07T01:50:44;10.70;;;7.78;;
76813;SDS011;65767;49.360;8.266;2022-12-07T01:51:45;10.55;;;8.20;;
76813;SDS011;65767;49.360;8.266;2022-12-07T01:52:47;10.65;;;8.32;;
76813;SDS011;65767;49.360;8.266;2022-12-07T01:53:49;10.00;;;7.78;;
76813;SDS011;65767;49.360;8.266;2022-12-07T01:54:51;11.90;;;8.57;;
76813;SDS011;65767;49.360;8.266;2022-12-07T01:55:52;10.95;;;8.05;;
76813;SDS011;65767;49.360;8.266;2022-12-07T01:56:53;10.87;;;8.00;;
76813;SDS011;65767;49.360;8.266;2022-12-07T01:57:54;9.45;;;7.68;;
76813;SDS011;65767;49.360;8.266;2022-12-07T01:58:55;11.87;;;8.30;;
76813;SDS011;65767;49.360;8.266;2022-12-07T01:59:57;10.63;;;8.07;;
76813;SDS011;65767;49.360;8.266;2022-12-07T02:00:57;10.97;;;8.80;;
76813;SDS011;65767;49.360;8.266;2022-12-07T02:01:58;11.57;;;8.43;;
76813;SDS011;65767;49.360;8.266;2022-12-07T02:03:03;12.70;;;8.07;;
76813;SDS011;65767;49.360;8.266;2022-12-07T02:04:05;9.82;;;7.72;;
76813;SDS011;65767;49.360;8.266;2022-12-07T02:05:06;11.73;;;8.27;;
76813;SDS011;65767;49.360;8.266;2022-12-07T02:06:06;12.33;;;7.97;;
76813;SDS011;65767;49.360;8.266;2022-12-07T02:07:07;11.80;;;8.33;;
76813;SDS011;65767;49.360;8.266;2022-12-07T02:08:08;11.03;;;8.00;;
76813;SDS011;65767;49.360;8.266;2022-12-07T02:09:08;11.33;;;7.63;;
76813;SDS011;65767;49.360;8.266;2022-12-07T02:10:22;9.77;;;7.23;;
76813;SDS011;65767;49.360;8.266;2022-12-07T02:11:22;10.60;;;7.95;;
76813;SDS011;65767;49.360;8.266;2022-12-07T02:12:23;11.13;;;7.77;;
76813;SDS011;65767;49.360;8.266;2022-12-07T02:13:25;11.13;;;7.93;;
76813;SDS011;65767;49.360;8.266;2022-12-07T02:14:26;9.60;;;7.55;;
76813;SDS011;65767;49.360;8.266;2022-12-07T02:15:30;12.23;;;8.33;;
76813;SDS011;65767;49.360;8.266;2022-12-07T02:18:44;11.45;;;8.13;;
76813;SDS011;65767;49.360;8.266;2022-12-07T02:21:54;11.10;;;8.27;;
76813;SDS011;65767;49.360;8.266;2022-12-07T02:26:10;13.10;;;8.93;;
76813;SDS011;65767;49.360;8.266;2022-12-07T02:28:05;12.75;;;8.68;;
76813;SDS011;65767;49.360;8.266;2022-12-07T02:29:23;11.57;;;8.90;;
76813;SDS011;65767;49.360;8.266;2022-12-07T02:30:25;13.10;;;8.88;;
76813;SDS011;65767;49.360;8.266;2022-12-07T02:31:28;11.23;;;7.97;;
76813;SDS011;65767;49.360;8.266;2022-12-07T02:32:54;11.43;;;8.88;;
76813;SDS011;65767;49.360;8.266;2022-12-07T02:33:54;12.73;;;8.45;;
76813;SDS011;65767;49.360;8.266;2022-12-07T02:35:57;13.27;;;9.10;;
76813;SDS011;65767;49.360;8.266;2022-12-07T02:37:00;10.90;;;8.23;;
76813;SDS011;65767;49.360;8.266;2022-12-07T02:38:04;11.05;;;8.48;;
76813;SDS011;65767;49.360;8.266;2022-12-07T02:39:11;10.57;;;7.72;;
76813;SDS011;65767;49.360;8.266;2022-12-07T02:40:20;12.50;;;8.40;;
76813;SDS011;65767;49.360;8.266;2022-12-07T02:41:43;16.80;;;9.27;;
76813;SDS011;65767;49.360;8.266;2022-12-07T02:42:49;15.27;;;9.07;;
76813;SDS011;65767;49.360;8.266;2022-12-07T02:43:52;13.73;;;9.07;;
76813;SDS011;65767;49.360;8.266;2022-12-07T02:44:53;14.77;;;8.27;;
76813;SDS011;65767;49.360;8.266;2022-12-07T02:45:58;12.10;;;8.50;;
76813;SDS011;65767;49.360;8.266;2022-12-07T02:47:01;13.32;;;9.38;;
76813;SDS011;65767;49.360;8.266;2022-12-07T02:48:02;13.85;;;8.85;;
76813;SDS011;65767;49.360;8.266;2022-12-07T02:49:04;14.98;;;9.40;;
76813;SDS011;65767;49.360;8.266;2022-12-07T02:50:05;13.17;;;9.23;;
76813;SDS011;65767;49.360;8.266;2022-12-07T02:51:06;14.77;;;8.90;;
76813;SDS011;65767;49.360;8.266;2022-12-07T02:52:07;14.70;;;9.20;;
76813;SDS011;65767;49.360;8.266;2022-12-07T02:53:27;11.20;;;7.73;;
76813;SDS011;65767;49.360;8.266;2022-12-07T02:54:27;11.90;;;8.23;;
76813;SDS011;65767;49.360;8.266;2022-12-07T02:55:28;12.57;;;8.20;;
76813;SDS011;65767;49.360;8.266;2022-12-07T02:56:48;11.50;;;8.43;;
76813;SDS011;65767;49.360;8.266;2022-12-07T03:01:10;10.63;;;8.10;;
76813;SDS011;65767;49.360;8.266;2022-12-07T03:03:25;11.55;;;7.63;;
76813;SDS011;65767;49.360;8.266;2022-12-07T03:05:32;9.73;;;7.23;;
76813;SDS011;65767;49.360;8.266;2022-12-07T03:06:39;11.15;;;7.97;;
76813;SDS011;65767;49.360;8.266;2022-12-07T03:10:09;10.43;;;7.60;;
76813;SDS011;65767;49.360;8.266;2022-12-07T03:11:14;10.20;;;7.90;;
76813;SDS011;65767;49.360;8.266;2022-12-07T03:12:17;9.45;;;7.05;;
76813;SDS011;65767;49.360;8.266;2022-12-07T03:13:23;13.15;;;7.80;;
76813;SDS011;65767;49.360;8.266;2022-12-07T03:14:25;11.35;;;7.55;;
76813;SDS011;65767;49.360;8.266;2022-12-07T03:16:55;11.48;;;7.75;;
76813;SDS011;65767;49.360;8.266;2022-12-07T03:17:58;12.07;;;8.50;;
76813;SDS011;65767;49.360;8.266;2022-12-07T03:19:15;10.23;;;7.53;;
76813;SDS011;65767;49.360;8.266;2022-12-07T03:20:18;12.98;;;8.65;;
76813;SDS011;65767;49.360;8.266;2022-12-07T03:21:22;11.10;;;7.50;;
76813;SDS011;65767;49.360;8.266;2022-12-07T03:22:23;13.40;;;8.50;;
76813;SDS011;65767;49.360;8.266;2022-12-07T03:23:25;11.18;;;8.57;;
76813;SDS011;65767;49.360;8.266;2022-12-07T03:24:31;12.40;;;9.05;;
76813;SDS011;65767;49.360;8.266;2022-12-07T03:25:33;11.35;;;8.65;;
76813;SDS011;65767;49.360;8.266;2022-12-07T03:26:35;10.77;;;8.00;;
76813;SDS011;65767;49.360;8.266;2022-12-07T03:28:45;12.48;;;8.73;;
76813;SDS011;65767;49.360;8.266;2022-12-07T03:29:48;13.45;;;8.82;;
76813;SDS011;65767;49.360;8.266;2022-12-07T03:30:52;12.63;;;8.23;;
76813;SDS011;65767;49.360;8.266;2022-12-07T03:31:58;12.18;;;8.27;;
76813;SDS011;65767;49.360;8.266;2022-12-07T03:35:04;14.18;;;8.60;;
76813;SDS011;65767;49.360;8.266;2022-12-07T03:36:09;10.75;;;8.38;;
76813;SDS011;65767;49.360;8.266;2022-12-07T03:38:19;12.88;;;8.48;;
76813;SDS011;65767;49.360;8.266;2022-12-07T03:39:24;13.55;;;8.63;;
76813;SDS011;65767;49.360;8.266;2022-12-07T03:41:29;11.40;;;8.85;;
76813;SDS011;65767;49.360;8.266;2022-12-07T03:42:30;12.55;;;8.50;;
76813;SDS011;65767;49.360;8.266;2022-12-07T03:43:31;12.67;;;8.67;;
76813;SDS011;65767;49.360;8.266;2022-12-07T03:44:32;13.90;;;8.07;;
76813;SDS011;65767;49.360;8.266;2022-12-07T03:45:37;10.55;;;8.30;;
76813;SDS011;65767;49.360;8.266;2022-12-07T03:46:48;12.32;;;8.80;;
76813;SDS011;65767;49.360;8.266;2022-12-07T03:48:02;11.68;;;8.15;;
76813;SDS011;65767;49.360;8.266;2022-12-07T03:51:21;12.87;;;8.53;;
76813;SDS011;65767;49.360;8.266;2022-12-07T03:53:43;10.90;;;8.35;;
76813;SDS011;65767;49.360;8.266;2022-12-07T03:55:48;12.88;;;10.05;;
76813;SDS011;65767;49.360;8.266;2022-12-07T03:56:49;14.57;;;10.60;;
76813;SDS011;65767;49.360;8.266;2022-12-07T03:57:51;16.70;;;10.38;;
76813;SDS011;65767;49.360;8.266;2022-12-07T03:58:53;16.50;;;11.80;;
76813;SDS011;65767;49.360;8.266;2022-12-07T03:59:54;13.70;;;10.53;;
76813;SDS011;65767;49.360;8.266;2022-12-07T04:00:55;13.27;;;10.13;;
76813;SDS011;65767;49.360;8.266;2022-12-07T04:01:56;13.60;;;9.93;;
76813;SDS011;65767;49.360;8.266;2022-12-07T04:02:57;13.45;;;10.52;;
76813;SDS011;65767;49.360;8.266;2022-12-07T04:03:57;15.43;;;10.70;;
76813;SDS011;65767;49.360;8.266;2022-12-07T04:04:58;13.93;;;10.43;;
76813;SDS011;65767;49.360;8.266;2022-12-07T04:05:58;12.73;;;9.50;;
76813;SDS011;65767;49.360;8.266;2022-12-07T04:06:59;11.77;;;8.50;;
76813;SDS011;65767;49.360;8.266;2022-12-07T04:07:59;13.73;;;9.43;;
76813;SDS011;65767;49.360;8.266;2022-12-07T04:09:00;11.57;;;8.47;;
76813;SDS011;65767;49.360;8.266;2022-12-07T04:10:00;10.67;;;8.03;;
76813;SDS011;65767;49.360;8.266;2022-12-07T04:11:01;12.37;;;8.53;;
76813;SDS011;65767;49.360;8.266;2022-12-07T04:12:01;10.37;;;7.73;;
76813;SDS011;65767;49.360;8.266;2022-12-07T04:13:01;10.60;;;7.87;;
76813;SDS011;65767;49.360;8.266;2022-12-07T04:14:02;11.43;;;8.23;;
76813;SDS011;65767;49.360;8.266;2022-12-07T04:15:21;12.77;;;7.82;;
76813;SDS011;65767;49.360;8.266;2022-12-07T04:16:21;11.73;;;8.10;;
76813;SDS011;65767;49.360;8.266;2022-12-07T04:17:21;9.13;;;7.20;;
76813;SDS011;65767;49.360;8.266;2022-12-07T04:18:22;10.43;;;7.23;;
76813;SDS011;65767;49.360;8.266;2022-12-07T04:19:23;12.00;;;8.77;;
76813;SDS011;65767;49.360;8.266;2022-12-07T04:20:24;9.77;;;7.40;;
76813;SDS011;65767;49.360;8.266;2022-12-07T04:21:24;9.83;;;7.37;;
76813;SDS011;65767;49.360;8.266;2022-12-07T04:22:24;10.03;;;7.63;;
76813;SDS011;65767;49.360;8.266;2022-12-07T04:23:25;10.10;;;7.53;;
76813;SDS011;65767;49.360;8.266;2022-12-07T04:24:25;8.50;;;6.77;;
76813;SDS011;65767;49.360;8.266;2022-12-07T04:25:26;9.20;;;7.47;;
76813;SDS011;65767;49.360;8.266;2022-12-07T04:26:26;11.00;;;7.53;;
76813;SDS011;65767;49.360;8.266;2022-12-07T04:27:27;10.47;;;8.07;;
76813;SDS011;65767;49.360;8.266;2022-12-07T04:28:27;10.77;;;8.20;;
76813;SDS011;65767;49.360;8.266;2022-12-07T04:29:27;10.17;;;7.07;;
76813;SDS011;65767;49.360;8.266;2022-12-07T04:30:28;10.13;;;7.50;;
76813;SDS011;65767;49.360;8.266;2022-12-07T04:31:28;11.43;;;8.70;;
76813;SDS011;65767;49.360;8.266;2022-12-07T04:32:29;10.03;;;8.07;;
76813;SDS011;65767;49.360;8.266;2022-12-07T04:33:29;10.33;;;8.13;;
76813;SDS011;65767;49.360;8.266;2022-12-07T04:34:29;11.23;;;8.47;;
76813;SDS011;65767;49.360;8.266;2022-12-07T04:35:30;13.00;;;8.30;;
76813;SDS011;65767;49.360;8.266;2022-12-07T04:36:30;10.53;;;8.20;;
76813;SDS011;65767;49.360;8.266;2022-12-07T04:37:33;11.67;;;8.03;;
76813;SDS011;65767;49.360;8.266;2022-12-07T04:38:34;11.48;;;8.32;;
76813;SDS011;65767;49.360;8.266;2022-12-07T04:39:34;10.23;;;7.93;;
76813;SDS011;65767;49.360;8.266;2022-12-07T04:40:34;11.87;;;8.53;;
76813;SDS011;65767;49.360;8.266;2022-12-07T04:41:35;10.07;;;8.43;;
76813;SDS011;65767;49.360;8.266;2022-12-07T04:42:35;10.77;;;8.90;;
76813;SDS011;65767;49.360;8.266;2022-12-07T04:43:35;10.77;;;8.07;;
76813;SDS011;65767;49.360;8.266;2022-12-07T04:44:36;10.40;;;8.37;;
76813;SDS011;65767;49.360;8.266;2022-12-07T04:45:37;13.03;;;9.03;;
76813;SDS011;65767;49.360;8.266;2022-12-07T04:46:37;12.03;;;8.80;;
76813;SDS011;65767;49.360;8.266;2022-12-07T04:47:37;9.40;;;7.03;;
76813;SDS011;65767;49.360;8.266;2022-12-07T04:48:38;7.70;;;6.60;;
76813;SDS011;65767;49.360;8.266;2022-12-07T04:49:38;9.90;;;6.40;;
76813;SDS011;65767;49.360;8.266;2022-12-07T04:50:38;8.10;;;5.97;;
76813;SDS011;65767;49.360;8.266;2022-12-07T04:51:39;8.27;;;6.43;;
76813;SDS011;65767;49.360;8.266;2022-12-07T04:52:39;10.33;;;6.33;;
76813;SDS011;65767;49.360;8.266;2022-12-07T04:53:40;7.20;;;5.67;;
76813;SDS011;65767;49.360;8.266;2022-12-07T04:54:40;7.97;;;6.20;;
76813;SDS011;65767;49.360;8.266;2022-12-07T04:55:41;8.17;;;6.30;;
76813;SDS011;65767;49.360;8.266;2022-12-07T04:56:41;8.83;;;6.40;;
76813;SDS011;65767;49.360;8.266;2022-12-07T04:57:42;6.40;;;5.70;;
76813;SDS011;65767;49.360;8.266;2022-12-07T04:58:43;8.70;;;6.53;;
76813;SDS011;65767;49.360;8.266;2022-12-07T04:59:43;10.50;;;6.30;;
76813;SDS011;65767;49.360;8.266;2022-12-07T05:00:44;7.77;;;5.93;;
76813;SDS011;65767;49.360;8.266;2022-12-07T05:01:44;12.30;;;6.07;;
76813;SDS011;65767;49.360;8.266;2022-12-07T05:02:44;8.37;;;6.00;;
76813;SDS011;65767;49.360;8.266;2022-12-07T05:03:45;8.43;;;6.20;;
76813;SDS011;65767;49.360;8.266;2022-12-07T05:04:45;8.47;;;5.87;;
76813;SDS011;65767;49.360;8.266;2022-12-07T05:05:46;7.87;;;6.23;;
76813;SDS011;65767;49.360;8.266;2022-12-07T05:06:46;7.77;;;5.73;;
76813;SDS011;65767;49.360;8.266;2022-12-07T05:07:46;7.27;;;5.80;;
76813;SDS011;65767;49.360;8.266;2022-12-07T05:08:47;6.97;;;5.63;;
76813;SDS011;65767;49.360;8.266;2022-12-07T05:09:47;8.77;;;6.20;;
76813;SDS011;65767;49.360;8.266;2022-12-07T05:10:48;10.53;;;6.70;;
76813;SDS011;65767;49.360;8.266;2022-12-07T05:11:48;7.82;;;5.97;;
76813;SDS011;65767;49.360;8.266;2022-12-07T05:12:49;7.37;;;6.10;;
76813;SDS011;65767;49.360;8.266;2022-12-07T05:13:49;6.67;;;5.83;;
76813;SDS011;65767;49.360;8.266;2022-12-07T05:14:49;7.27;;;6.03;;
76813;SDS011;65767;49.360;8.266;2022-12-07T05:15:50;9.70;;;6.50;;
76813;SDS011;65767;49.360;8.266;2022-12-07T05:16:50;10.13;;;6.30;;
76813;SDS011;65767;49.360;8.266;2022-12-07T05:17:51;7.30;;;5.93;;
76813;SDS011;65767;49.360;8.266;2022-12-07T05:18:52;9.20;;;6.30;;
76813;SDS011;65767;49.360;8.266;2022-12-07T05:19:52;8.40;;;5.70;;
76813;SDS011;65767;49.360;8.266;2022-12-07T05:20:53;8.57;;;6.00;;
76813;SDS011;65767;49.360;8.266;2022-12-07T05:21:53;7.27;;;5.90;;
76813;SDS011;65767;49.360;8.266;2022-12-07T05:22:53;7.43;;;6.20;;
76813;SDS011;65767;49.360;8.266;2022-12-07T05:23:54;7.80;;;5.87;;
76813;SDS011;65767;49.360;8.266;2022-12-07T05:24:54;9.53;;;6.77;;
76813;SDS011;65767;49.360;8.266;2022-12-07T05:25:55;9.20;;;6.70;;
76813;SDS011;65767;49.360;8.266;2022-12-07T05:26:55;10.33;;;6.23;;
76813;SDS011;65767;49.360;8.266;2022-12-07T05:27:56;7.67;;;6.50;;
76813;SDS011;65767;49.360;8.266;2022-12-07T05:28:56;10.10;;;6.70;;
76813;SDS011;65767;49.360;8.266;2022-12-07T05:29:56;7.50;;;6.57;;
76813;SDS011;65767;49.360;8.266;2022-12-07T05:30:57;8.13;;;6.73;;
76813;SDS011;65767;49.360;8.266;2022-12-07T05:31:57;9.20;;;6.50;;
76813;SDS011;65767;49.360;8.266;2022-12-07T05:32:58;9.03;;;6.67;;
76813;SDS011;65767;49.360;8.266;2022-12-07T05:33:58;8.73;;;6.53;;
76813;SDS011;65767;49.360;8.266;2022-12-07T05:34:58;7.97;;;6.20;;
76813;SDS011;65767;49.360;8.266;2022-12-07T05:35:59;8.47;;;6.87;;
76813;SDS011;65767;49.360;8.266;2022-12-07T05:37:05;7.22;;;6.25;;
76813;SDS011;65767;49.360;8.266;2022-12-07T05:38:05;11.43;;;6.90;;
76813;SDS011;65767;49.360;8.266;2022-12-07T05:39:06;9.70;;;7.00;;
76813;SDS011;65767;49.360;8.266;2022-12-07T05:40:07;9.73;;;6.55;;
76813;SDS011;65767;49.360;8.266;2022-12-07T05:41:08;8.33;;;6.50;;
76813;SDS011;65767;49.360;8.266;2022-12-07T05:42:29;7.93;;;6.30;;
76813;SDS011;65767;49.360;8.266;2022-12-07T05:43:29;8.53;;;6.30;;
76813;SDS011;65767;49.360;8.266;2022-12-07T05:44:29;9.63;;;7.03;;
76813;SDS011;65767;49.360;8.266;2022-12-07T05:45:30;8.90;;;6.83;;
76813;SDS011;65767;49.360;8.266;2022-12-07T05:46:30;9.37;;;6.93;;
76813;SDS011;65767;49.360;8.266;2022-12-07T05:47:31;9.57;;;6.37;;
76813;SDS011;65767;49.360;8.266;2022-12-07T05:48:31;10.17;;;6.53;;
76813;SDS011;65767;49.360;8.266;2022-12-07T05:49:32;10.03;;;6.90;;
76813;SDS011;65767;49.360;8.266;2022-12-07T05:50:32;10.47;;;6.70;;
76813;SDS011;65767;49.360;8.266;2022-12-07T05:51:35;9.50;;;6.70;;
76813;SDS011;65767;49.360;8.266;2022-12-07T05:52:35;8.20;;;6.80;;
76813;SDS011;65767;49.360;8.266;2022-12-07T05:53:36;9.33;;;6.50;;
76813;SDS011;65767;49.360;8.266;2022-12-07T05:54:36;10.50;;;6.90;;
76813;SDS011;65767;49.360;8.266;2022-12-07T05:55:36;11.73;;;8.03;;
76813;SDS011;65767;49.360;8.266;2022-12-07T05:56:37;9.40;;;6.90;;
76813;SDS011;65767;49.360;8.266;2022-12-07T05:57:37;7.90;;;6.53;;
76813;SDS011;65767;49.360;8.266;2022-12-07T05:58:37;7.93;;;6.20;;
76813;SDS011;65767;49.360;8.266;2022-12-07T05:59:57;8.10;;;6.40;;
76813;SDS011;65767;49.360;8.266;2022-12-07T06:00:57;9.80;;;6.47;;
76813;SDS011;65767;49.360;8.266;2022-12-07T06:01:58;9.37;;;6.70;;
76813;SDS011;65767;49.360;8.266;2022-12-07T06:02:59;9.65;;;7.10;;
76813;SDS011;65767;49.360;8.266;2022-12-07T06:04:00;10.10;;;6.87;;
76813;SDS011;65767;49.360;8.266;2022-12-07T06:05:00;9.03;;;6.90;;
76813;SDS011;65767;49.360;8.266;2022-12-07T06:06:00;9.33;;;7.13;;
76813;SDS011;65767;49.360;8.266;2022-12-07T06:07:01;8.73;;;6.60;;
76813;SDS011;65767;49.360;8.266;2022-12-07T06:08:01;10.50;;;6.87;;
76813;SDS011;65767;49.360;8.266;2022-12-07T06:09:02;9.67;;;7.60;;
76813;SDS011;65767;49.360;8.266;2022-12-07T06:10:02;8.40;;;6.97;;
76813;SDS011;65767;49.360;8.266;2022-12-07T06:11:03;9.43;;;7.63;;
76813;SDS011;65767;49.360;8.266;2022-12-07T06:12:22;9.35;;;6.78;;
76813;SDS011;65767;49.360;8.266;2022-12-07T06:13:34;9.57;;;7.05;;
76813;SDS011;65767;49.360;8.266;2022-12-07T06:14:34;10.77;;;7.07;;
76813;SDS011;65767;49.360;8.266;2022-12-07T06:15:35;11.20;;;7.40;;
76813;SDS011;65767;49.360;8.266;2022-12-07T06:16:36;7.87;;;6.90;;
76813;SDS011;65767;49.360;8.266;2022-12-07T06:17:36;8.47;;;7.10;;
76813;SDS011;65767;49.360;8.266;2022-12-07T06:18:37;8.30;;;6.87;;
76813;SDS011;65767;49.360;8.266;2022-12-07T06:19:37;12.63;;;8.07;;
76813;SDS011;65767;49.360;8.266;2022-12-07T06:20:38;10.47;;;7.83;;
76813;SDS011;65767;49.360;8.266;2022-12-07T06:21:38;10.60;;;7.40;;
76813;SDS011;65767;49.360;8.266;2022-12-07T06:22:38;9.10;;;7.30;;
76813;SDS011;65767;49.360;8.266;2022-12-07T06:23:39;12.80;;;7.60;;
76813;SDS011;65767;49.360;8.266;2022-12-07T06:24:39;14.03;;;8.00;;
76813;SDS011;65767;49.360;8.266;2022-12-07T06:25:40;11.67;;;8.27;;
76813;SDS011;65767;49.360;8.266;2022-12-07T06:26:45;9.80;;;7.38;;
76813;SDS011;65767;49.360;8.266;2022-12-07T06:27:45;11.27;;;7.87;;
76813;SDS011;65767;49.360;8.266;2022-12-07T06:28:45;11.43;;;8.13;;
76813;SDS011;65767;49.360;8.266;2022-12-07T06:29:46;11.80;;;7.47;;
76813;SDS011;65767;49.360;8.266;2022-12-07T06:30:46;12.00;;;8.23;;
76813;SDS011;65767;49.360;8.266;2022-12-07T06:31:47;9.50;;;7.50;;
76813;SDS011;65767;49.360;8.266;2022-12-07T06:32:47;11.53;;;7.97;;
76813;SDS011;65767;49.360;8.266;2022-12-07T06:33:48;9.77;;;7.60;;
76813;SDS011;65767;49.360;8.266;2022-12-07T06:34:48;10.03;;;7.50;;
76813;SDS011;65767;49.360;8.266;2022-12-07T06:35:49;10.43;;;8.10;;
76813;SDS011;65767;49.360;8.266;2022-12-07T06:36:50;10.63;;;7.70;;
76813;SDS011;65767;49.360;8.266;2022-12-07T06:37:55;13.73;;;8.98;;
76813;SDS011;65767;49.360;8.266;2022-12-07T06:38:55;12.67;;;8.67;;
76813;SDS011;65767;49.360;8.266;2022-12-07T06:39:55;10.63;;;8.37;;